Marrakech, Morocco
Current Conditions -  °F | °C
As of 3:00 PM on Wednesday 22 Oct 2014 (Local Time) from GMMX Reporting Station
Clear Clear  
Wind Chill: 95°   Ceiling: Unl
Heat Index: 95°   Visibility: 6mi
Dew Point: 34°   Wind: 5mph
Humidity: 12%   Direction: 330°NNW
Pressure: 30.09"   Gusts: NA
Location:  31.63°N, 8°W
Report Text: GMMX 221400Z 33004KT 270V050 CAVOK 35/01 Q1019 NOSIG
Loading
Personal Weather Stations






























Interactive Weather Map
Tropical Storm Tracking
New forecast layout! Learn more

10-Day Weather Forecast

Advertisements
Track Severe Weather on mobile